createdAt,value
2022-12-23T00:04:43.642Z,94.91
2022-12-23T00:09:45.199Z,93.58
2022-12-23T00:14:48.386Z,91.72
2022-12-23T00:19:49.921Z,91.29
2022-12-23T00:24:51.497Z,90.27
2022-12-23T00:29:54.676Z,93.51
2022-12-23T00:34:56.320Z,94.98
2022-12-23T00:40:04.299Z,95.65
2022-12-23T00:45:09.801Z,96.80
2022-12-23T00:50:11.785Z,99.30
2022-12-23T00:55:13.598Z,100.00
2022-12-23T01:00:17.502Z,100.00
2022-12-23T01:05:19.266Z,100.00
2022-12-23T01:10:20.984Z,100.00
2022-12-23T01:15:23.997Z,100.00
2022-12-23T01:20:25.820Z,100.00
2022-12-23T01:25:27.486Z,98.92
2022-12-23T01:30:30.421Z,97.60
2022-12-23T01:35:32.055Z,99.29
2022-12-23T01:40:34.947Z,100.00
2022-12-23T01:45:37.967Z,100.00
2022-12-23T01:50:44.548Z,99.94
2022-12-23T01:55:49.471Z,99.86
2022-12-23T02:00:56.114Z,97.51
2022-12-23T02:05:58.899Z,96.57
2022-12-23T02:11:19.195Z,98.84
2022-12-23T02:16:22.252Z,99.01
2022-12-23T02:21:42.001Z,96.91
2022-12-23T02:27:15.065Z,96.51
2022-12-23T02:32:23.647Z,95.18
2022-12-23T02:37:37.099Z,95.47
2022-12-23T02:42:45.210Z,96.66
2022-12-23T02:47:52.069Z,96.36
2022-12-23T02:52:57.827Z,95.72
2022-12-23T02:58:01.851Z,97.03
2022-12-23T03:03:05.041Z,98.17
2022-12-23T03:08:13.653Z,99.31
2022-12-23T03:13:23.708Z,100.00
2022-12-23T03:18:39.356Z,100.00
2022-12-23T03:23:50.402Z,100.00
2022-12-23T03:29:01.070Z,100.00
2022-12-23T03:34:09.604Z,100.00
2022-12-23T03:39:16.253Z,100.00
2022-12-23T03:44:22.952Z,100.00
2022-12-23T03:49:30.242Z,100.00
2022-12-23T03:54:37.868Z,100.00
2022-12-23T03:59:43.069Z,100.00
2022-12-23T04:05:14.813Z,99.03
2022-12-23T04:10:16.332Z,97.76
2022-12-23T04:15:21.392Z,97.47
2022-12-23T04:20:24.970Z,95.77
2022-12-23T04:25:26.585Z,95.43
2022-12-23T04:30:33.930Z,93.32
2022-12-23T04:35:37.772Z,89.92
2022-12-23T04:40:39.257Z,90.09
2022-12-23T04:45:40.749Z,92.80
2022-12-23T04:50:43.681Z,94.41
2022-12-23T04:55:49.856Z,94.25
2022-12-23T05:01:00.849Z,92.45
2022-12-23T05:06:04.584Z,93.88
2022-12-23T05:11:06.137Z,92.95
2022-12-23T05:16:07.763Z,91.04
2022-12-23T05:21:11.013Z,92.03
2022-12-23T05:26:12.600Z,93.52
2022-12-23T05:31:14.567Z,93.64
2022-12-23T05:36:17.510Z,92.95
2022-12-23T05:41:19.387Z,91.89
2022-12-23T05:46:26.167Z,94.89
2022-12-23T05:51:29.957Z,96.13
2022-12-23T05:56:31.592Z,95.68
2022-12-23T06:01:33.192Z,95.55
2022-12-23T06:06:36.365Z,95.24
2022-12-23T06:11:38.245Z,94.83
2022-12-23T06:16:39.840Z,95.47
2022-12-23T06:21:42.760Z,95.59
2022-12-23T06:26:44.340Z,96.89
2022-12-23T06:31:45.988Z,98.53
2022-12-23T06:36:49.231Z,98.97
2022-12-23T06:41:50.788Z,99.23
2022-12-23T06:46:52.305Z,97.66
2022-12-23T06:51:55.362Z,96.80
2022-12-23T06:56:56.954Z,95.26
2022-12-23T07:01:58.592Z,95.30
2022-12-23T07:07:01.527Z,95.25
2022-12-23T07:12:03.137Z,94.35
2022-12-23T07:17:04.634Z,95.38
2022-12-23T07:22:07.864Z,97.71
2022-12-23T07:27:09.437Z,98.21
2022-12-23T07:32:11.151Z,97.73
2022-12-23T07:37:14.109Z,98.78
2022-12-23T07:42:43.710Z,98.93
2022-12-23T07:47:37.154Z,99.56
2022-12-23T07:52:40.099Z,99.42
2022-12-23T07:57:41.698Z,99.63
2022-12-23T08:02:43.685Z,98.84
2022-12-23T08:07:46.737Z,97.46
2022-12-23T08:12:48.348Z,95.87
2022-12-23T08:17:50.180Z,96.72
2022-12-23T08:22:53.143Z,96.56
2022-12-23T08:27:54.729Z,96.17
2022-12-23T08:32:56.301Z,96.29
2022-12-23T08:37:59.304Z,95.96
2022-12-23T08:43:00.807Z,94.28
2022-12-23T08:48:02.329Z,94.94
2022-12-23T08:53:05.401Z,94.72
2022-12-23T08:58:08.162Z,94.32
2022-12-23T09:03:10.034Z,93.70
2022-12-23T09:08:13.283Z,93.79
2022-12-23T09:13:22.345Z,94.61
2022-12-23T09:18:28.031Z,95.80
2022-12-23T09:23:31.063Z,93.86
2022-12-23T09:28:32.958Z,93.09
2022-12-23T09:33:34.611Z,90.30
2022-12-23T09:38:37.854Z,90.55
2022-12-23T09:43:52.906Z,87.68
2022-12-23T09:49:02.521Z,84.91
2022-12-23T09:54:16.551Z,85.25
2022-12-23T09:59:31.417Z,80.13
2022-12-23T10:04:41.781Z,78.07
2022-12-23T10:09:49.673Z,83.71
2022-12-23T10:14:55.596Z,85.61
2022-12-23T10:20:00.416Z,85.81
2022-12-23T10:25:12.741Z,85.63
2022-12-23T10:30:51.388Z,84.21
2022-12-23T10:35:49.397Z,83.64
2022-12-23T10:40:59.435Z,80.31
2022-12-23T10:46:15.604Z,79.54
2022-12-23T10:51:21.783Z,80.97
2022-12-23T10:56:25.353Z,80.33
2022-12-23T11:01:29.389Z,83.49
2022-12-23T11:06:37.588Z,85.28
2022-12-23T11:11:58.840Z,85.17
2022-12-23T11:17:00.747Z,85.95
2022-12-23T11:22:02.602Z,84.59
2022-12-23T11:27:11.798Z,84.55
2022-12-23T11:32:16.903Z,83.79
2022-12-23T11:37:29.963Z,83.70
2022-12-23T11:42:34.904Z,83.46
2022-12-23T11:47:39.402Z,83.57
2022-12-23T11:52:50.728Z,81.18
2022-12-23T11:57:54.021Z,80.40
2022-12-23T12:02:58.955Z,81.04
2022-12-23T12:08:02.565Z,80.67
2022-12-23T12:13:08.240Z,78.26
2022-12-23T12:18:13.660Z,76.22
2022-12-23T12:23:20.956Z,75.26
2022-12-23T12:28:29.808Z,76.21
2022-12-23T12:33:38.173Z,78.98
2022-12-23T12:38:40.081Z,83.87
2022-12-23T12:43:49.122Z,87.48
2022-12-23T12:48:56.500Z,89.13
2022-12-23T12:54:11.538Z,88.99
2022-12-23T12:59:18.664Z,86.60
2022-12-23T13:04:55.191Z,89.48
2022-12-23T13:10:03.632Z,87.49
2022-12-23T13:15:18.845Z,86.03
2022-12-23T13:20:33.671Z,87.51
2022-12-23T13:25:42.616Z,87.66
2022-12-23T13:30:54.543Z,87.89
2022-12-23T13:36:08.030Z,89.15
2022-12-23T13:41:18.299Z,89.36
2022-12-23T13:46:30.180Z,88.94
2022-12-23T13:51:37.478Z,90.60
2022-12-23T13:56:43.611Z,91.65
2022-12-23T14:01:48.532Z,94.65
2022-12-23T14:06:50.398Z,95.89
2022-12-23T14:11:52.818Z,95.73
2022-12-23T14:17:06.642Z,94.73
2022-12-23T14:22:27.024Z,93.76
2022-12-23T14:27:50.255Z,91.80
2022-12-23T14:32:57.843Z,91.65
2022-12-23T14:38:22.086Z,95.79
2022-12-23T14:43:32.112Z,99.26
2022-12-23T14:49:38.164Z,100.00
2022-12-23T14:54:46.586Z,100.00
2022-12-23T15:00:03.728Z,100.00
2022-12-23T15:05:05.900Z,100.00
2022-12-23T15:10:17.728Z,100.00
2022-12-23T15:15:22.093Z,100.00
2022-12-23T15:20:25.234Z,100.00
2022-12-23T15:25:32.312Z,100.00
2022-12-23T15:30:36.964Z,100.00
2022-12-23T15:35:40.141Z,100.00
2022-12-23T15:40:44.199Z,100.00
2022-12-23T15:45:46.545Z,100.00
2022-12-23T15:50:50.291Z,100.00
2022-12-23T15:55:53.667Z,100.00
2022-12-23T16:00:57.548Z,100.00
2022-12-23T16:06:08.207Z,100.00
2022-12-23T16:11:17.307Z,100.00
2022-12-23T16:16:37.349Z,100.00
2022-12-23T16:21:40.424Z,100.00
2022-12-23T16:26:43.657Z,100.00
2022-12-23T16:31:52.120Z,100.00
2022-12-23T16:36:57.477Z,100.00
2022-12-23T16:42:00.497Z,100.00
2022-12-23T16:47:06.592Z,100.00
2022-12-23T16:52:12.580Z,100.00
2022-12-23T16:57:15.649Z,100.00
2022-12-23T17:02:23.779Z,99.94
2022-12-23T17:07:27.456Z,98.51
2022-12-23T17:12:30.713Z,98.19
2022-12-23T17:17:32.700Z,97.50
2022-12-23T17:22:36.306Z,96.18
2022-12-23T17:27:39.209Z,95.57
2022-12-23T17:32:40.844Z,95.45
2022-12-23T17:37:42.599Z,93.50
2022-12-23T17:42:46.906Z,90.28
2022-12-23T17:47:48.523Z,90.91
2022-12-23T17:52:50.811Z,91.66
2022-12-23T17:57:53.878Z,90.09
2022-12-23T18:02:55.423Z,90.09
2022-12-23T18:07:58.583Z,89.83
2022-12-23T18:13:04.887Z,90.34
2022-12-23T18:18:12.819Z,89.72
2022-12-23T18:23:18.466Z,90.08
2022-12-23T18:28:21.596Z,91.11
2022-12-23T18:33:23.341Z,91.61
2022-12-23T18:38:24.835Z,89.16
2022-12-23T18:43:27.666Z,87.67
2022-12-23T18:48:29.231Z,88.51
2022-12-23T18:53:30.779Z,88.32
2022-12-23T18:58:33.707Z,87.08
2022-12-23T19:03:35.280Z,87.08
2022-12-23T19:08:38.028Z,87.93
2022-12-23T19:13:41.354Z,86.04
2022-12-23T19:18:42.955Z,86.65
2022-12-23T19:23:45.008Z,84.89
2022-12-23T19:28:48.017Z,84.29
2022-12-23T19:33:49.496Z,85.92
2022-12-23T19:38:51.325Z,86.91
2022-12-23T19:43:54.228Z,87.36
2022-12-23T19:48:55.848Z,85.68
2022-12-23T19:53:57.376Z,86.48
2022-12-23T19:59:00.236Z,86.04
2022-12-23T20:04:01.858Z,85.35
2022-12-23T20:09:05.265Z,83.16
2022-12-23T20:14:08.951Z,83.30
2022-12-23T20:19:11.018Z,81.73
2022-12-23T20:24:14.088Z,81.38
2022-12-23T20:29:17.113Z,81.89
2022-12-23T20:34:18.793Z,81.47
2022-12-23T20:39:20.391Z,82.33
2022-12-23T20:44:34.539Z,81.65
2022-12-23T20:49:37.511Z,81.37
2022-12-23T20:54:39.056Z,82.27
2022-12-23T20:59:42.055Z,81.18
2022-12-23T21:04:43.691Z,79.28
2022-12-23T21:09:45.201Z,78.50
2022-12-23T21:14:48.116Z,76.98
2022-12-23T21:19:49.899Z,78.74
2022-12-23T21:24:51.632Z,75.81
2022-12-23T21:29:54.603Z,74.46
2022-12-23T21:34:56.254Z,74.59
2022-12-23T21:39:57.747Z,74.87
2022-12-23T21:45:00.757Z,75.77
2022-12-23T21:50:02.402Z,76.55
2022-12-23T21:55:04.594Z,75.54
2022-12-23T22:00:09.353Z,75.10
2022-12-23T22:05:11.241Z,74.70
2022-12-23T22:10:12.849Z,74.91
2022-12-23T22:15:15.937Z,74.32
2022-12-23T22:20:20.256Z,74.28
2022-12-23T22:25:22.206Z,72.58
2022-12-23T22:30:25.264Z,72.46
2022-12-23T22:35:26.905Z,71.26
2022-12-23T22:40:28.441Z,73.26
2022-12-23T22:45:31.456Z,74.10
2022-12-23T22:50:33.349Z,70.97
2022-12-23T22:55:34.976Z,70.07
2022-12-23T23:00:37.965Z,71.88
2022-12-23T23:05:39.696Z,71.11
2022-12-23T23:10:41.862Z,72.17
2022-12-23T23:15:47.422Z,71.62
2022-12-23T23:20:49.055Z,73.48
2022-12-23T23:25:50.701Z,73.58
2022-12-23T23:31:16.753Z,73.24
2022-12-23T23:36:16.416Z,74.97
2022-12-23T23:41:22.793Z,76.60
2022-12-23T23:46:27.470Z,77.34
2022-12-23T23:51:29.275Z,77.75
2022-12-23T23:56:37.625Z,77.61
